Airfield :
LOGIN :

Register | Disclaimer

   EN    FR    IT 

 










Legend :    VFR   Marginal VFR   IFR   Intensive IFR   Very Intensive IFR
Visi :
Ceiling :
>= 8 km
>= 3000ft
5 to 8 km
1000 to 3000 ft
1500m to 5 km
500 to 1000 ft
800 to 1500m
200 to 500 ft
< 800m
< 200 ft
Symbols :   Thunderstorms  Fog  Heavy snow  Heavy precipitations  Wind > 20 kt
SIGMETs :     Misc.  Thunderstorms  Icing  Turbulence  Mountain Waves  Volcanic Ashes






- Airport Elevation : 512 ft
- IATA code : URO


LFOP - Rouen Vallée de Seine

CURRENT METAR :
  • 022200Z AUTO 01006KT CAVOK 19/08 Q1013

EXPIRED METARs :
  • 022130Z AUTO 01007KT CAVOK 19/08 Q1013
  • 022100Z AUTO 01007KT CAVOK 19/08 Q1014
  • 022030Z AUTO 01007KT CAVOK 20/09 Q1014
  • 022000Z AUTO 01007KT CAVOK 21/09 Q1014 NOSIG
  • 021930Z AUTO 01007KT CAVOK 22/08 Q1014 NOSIG

TAF TAF LFOP
Valid from the 02 at 18:00 until the 03 at 18:00 UTC


021700Z 0218/0318 36010KT CAVOK
BECMG 0219/0222 VRB03KT
BECMG 0313/0315 36010KT
PROB30
TEMPO 0315/0318 SCT080TCU
ATIS : +33 2 35 80 80 34
Met : +33 2 32 86 52 80



MET'MAP, your aeronautical weather chart ! - Copyright ORBIFLY December 2007 - Disclaimer

ORBIFLY MET'MAP TEAM :

Programming & Development : Alexandra Zaïnal
Concept & original design : Baudouin d'Aumeries
Assistance for programming : Marc-Olivier Méhu
Technical & hardware support : Manuel Goepfert

Contact : metmap@orbifly.com




SOURCES & CREDITS :

   NOAA